Time;durP1;ratioP1;P1;durP2;ratioP2;P2;SDS_P1;SDS_P2;PMS_P1;PMS_P2;Temp;Humidity;BMP_temperature;BMP_pressure;BME280_temperature;BME280_humidity;BME280_pressure;Samples;Min_cycle;Max_cycle;Signal;HPM_P1;HPM_P2
2021/12/26 00:00:24;;;;;;;21.15;10.68;;;;;;;5.94;51.35;93427.41;5028092;28;20033;-73
2021/12/26 00:02:50;;;;;;;17.88;9.60;;;;;;;6.11;50.81;93424.19;5029859;28;20034;-74
2021/12/26 00:05:16;;;;;;;18.08;8.27;;;;;;;5.73;51.36;93417.50;5029069;28;20094;-74
2021/12/26 00:07:42;;;;;;;18.80;9.40;;;;;;;5.91;51.19;93435.91;5029953;28;20597;-75
2021/12/26 00:10:10;;;;;;;15.13;9.15;;;;;;;6.08;50.79;93440.59;5026258;28;20032;-76
2021/12/26 00:12:37;;;;;;;19.25;9.30;;;;;;;5.72;51.61;93445.75;5030357;28;20163;-75
2021/12/26 00:15:04;;;;;;;15.95;9.02;;;;;;;5.93;51.52;93433.75;5026183;28;20461;-76
2021/12/26 00:17:29;;;;;;;13.38;8.00;;;;;;;5.81;51.68;93441.38;5031028;28;20414;-76
2021/12/26 00:19:55;;;;;;;12.73;7.72;;;;;;;6.14;51.00;93446.56;5027134;28;20037;-77
2021/12/26 00:22:20;;;;;;;13.80;7.30;;;;;;;6.08;50.30;93405.47;5032116;28;20033;-76
2021/12/26 00:24:46;;;;;;;20.58;10.05;;;;;;;6.30;50.30;93439.94;5026875;28;20026;-76
2021/12/26 00:27:13;;;;;;;17.17;9.20;;;;;;;6.39;49.92;93446.09;5020200;28;20056;-74
2021/12/26 00:29:39;;;;;;;18.30;7.75;;;;;;;6.37;49.86;93443.72;5029054;28;20455;-74
2021/12/26 00:32:06;;;;;;;18.73;9.27;;;;;;;6.32;50.03;93435.91;5030205;28;20037;-74
2021/12/26 00:34:32;;;;;;;21.67;11.15;;;;;;;6.24;49.89;93409.41;5029082;28;20064;-77
2021/12/26 00:36:57;;;;;;;16.85;9.23;;;;;;;6.50;49.75;93428.97;5027528;28;20033;-74
2021/12/26 00:39:23;;;;;;;17.58;9.00;;;;;;;6.56;49.35;93432.25;5029273;28;20111;-74
2021/12/26 00:41:48;;;;;;;11.88;8.57;;;;;;;6.20;49.20;93390.75;5030633;28;20039;-76
2021/12/26 00:44:13;;;;;;;11.70;7.63;;;;;;;6.71;48.97;93437.22;5028754;28;20048;-74
2021/12/26 00:46:39;;;;;;;12.60;7.65;;;;;;;6.76;48.79;93437.09;5030126;28;20477;-77
2021/12/26 00:49:05;;;;;;;10.93;6.25;;;;;;;6.88;48.45;93433.94;5029284;28;20415;-74
2021/12/26 00:51:31;;;;;;;9.70;5.72;;;;;;;6.81;47.88;93415.84;5017500;28;20480;-76
2021/12/26 00:53:56;;;;;;;10.52;6.35;;;;;;;6.66;48.25;93427.53;5012521;28;20544;-74
2021/12/26 00:56:22;;;;;;;14.80;6.80;;;;;;;6.82;48.19;93446.50;5027616;28;20108;-77
2021/12/26 00:58:48;;;;;;;12.25;6.10;;;;;;;6.82;48.35;93436.72;5027142;28;20044;-74
2021/12/26 01:01:14;;;;;;;8.10;5.32;;;;;;;6.86;47.93;93436.88;5026947;28;20037;-76
2021/12/26 01:03:40;;;;;;;9.48;6.18;;;;;;;6.67;47.69;93413.25;5029313;28;20439;-76
2021/12/26 01:06:06;;;;;;;9.52;5.68;;;;;;;6.57;48.66;93445.19;5025026;28;20382;-76
2021/12/26 01:08:37;;;;;;;11.00;6.07;;;;;;;6.37;48.89;93424.47;5030753;28;20072;-76
2021/12/26 01:11:14;;;;;;;10.38;6.53;;;;;;;6.40;49.12;93445.81;5027743;28;20045;-76
2021/12/26 01:13:40;;;;;;;9.43;6.13;;;;;;;6.53;48.85;93435.50;5027277;28;20056;-75
2021/12/26 01:16:10;;;;;;;9.23;5.55;;;;;;;6.56;48.73;93438.31;5025019;28;20815;-76
2021/12/26 01:18:40;;;;;;;8.00;4.47;;;;;;;6.43;48.32;93394.22;5031231;28;20017;-76
2021/12/26 01:21:25;;;;;;;10.10;5.78;;;;;;;6.57;48.54;93421.41;5031265;28;20033;-74
2021/12/26 01:23:54;;;;;;;43.00;20.48;;;;;;;6.66;48.38;93416.19;5028823;28;20094;-74
2021/12/26 01:26:21;;;;;;;40.90;17.63;;;;;;;6.21;48.57;93358.00;5026875;28;20033;-74
2021/12/26 01:28:47;;;;;;;15.27;8.73;;;;;;;6.47;48.39;93399.69;5027710;28;20033;-75
2021/12/26 01:31:18;;;;;;;13.18;7.55;;;;;;;6.73;48.07;93404.13;5024854;28;20017;-75
2021/12/26 01:33:45;;;;;;;15.93;6.85;;;;;;;6.69;48.01;93416.38;5027983;28;20041;-76
2021/12/26 01:36:10;;;;;;;22.05;11.18;;;;;;;6.63;48.46;93407.00;5028999;28;20096;-73
2021/12/26 01:38:36;;;;;;;21.77;12.13;;;;;;;6.64;48.34;93408.56;5026062;28;20144;-74
2021/12/26 01:41:08;;;;;;;12.18;7.30;;;;;;;6.72;48.03;93409.72;5010547;28;20459;-74
2021/12/26 01:43:35;;;;;;;15.02;9.50;;;;;;;6.69;48.31;93411.09;5027503;28;20037;-74
2021/12/26 01:46:01;;;;;;;15.07;8.60;;;;;;;6.70;48.26;93401.31;5008102;28;20030;-74
2021/12/26 01:48:27;;;;;;;12.38;7.82;;;;;;;6.43;48.03;93362.53;5028206;28;20580;-74
2021/12/26 01:50:53;;;;;;;9.60;6.60;;;;;;;6.60;48.40;93407.59;5026287;28;20061;-74
2021/12/26 01:53:22;;;;;;;8.68;5.95;;;;;;;6.67;48.25;93392.13;5030130;28;20041;-75
2021/12/26 01:55:47;;;;;;;11.63;6.47;;;;;;;6.56;48.03;93398.69;5026414;28;20065;-74
2021/12/26 01:58:17;;;;;;;14.02;7.63;;;;;;;6.36;48.81;93391.22;5029938;28;20112;-75
2021/12/26 02:00:45;;;;;;;9.05;6.35;;;;;;;6.15;49.06;93374.19;5025298;28;20024;-75
2021/12/26 02:03:11;;;;;;;10.82;6.32;;;;;;;6.41;48.79;93393.72;5020325;28;20041;-74
2021/12/26 02:05:37;;;;;;;10.73;6.88;;;;;;;6.44;48.84;93403.72;5013840;28;20515;-75
2021/12/26 02:08:04;;;;;;;11.77;7.38;;;;;;;6.55;48.47;93405.06;5030558;28;20040;-74
2021/12/26 02:10:30;;;;;;;23.60;11.15;;;;;;;6.24;48.91;93385.66;5030800;28;20449;-75
2021/12/26 02:12:55;;;;;;;24.55;10.55;;;;;;;5.83;49.55;93346.84;5032567;28;20025;-75
2021/12/26 02:15:21;;;;;;;16.42;10.32;;;;;;;6.18;49.42;93369.13;5028783;28;20185;-76
2021/12/26 02:17:46;;;;;;;14.20;7.15;;;;;;;6.18;49.45;93378.91;5031898;28;20120;-75
2021/12/26 02:20:14;;;;;;;13.52;7.32;;;;;;;6.38;49.38;93389.06;5027777;28;20049;-75
2021/12/26 02:22:43;;;;;;;12.50;7.38;;;;;;;6.50;49.21;93381.41;5014432;28;20977;-75
2021/12/26 02:25:25;;;;;;;8.10;5.35;;;;;;;6.43;48.71;93350.09;5028432;28;20032;-74
2021/12/26 02:27:50;;;;;;;12.25;6.55;;;;;;;6.60;48.79;93386.47;5019325;28;20044;-75
2021/12/26 02:30:16;;;;;;;12.27;6.68;;;;;;;6.56;49.06;93392.63;5028444;28;20152;-75
2021/12/26 02:32:46;;;;;;;15.43;9.02;;;;;;;6.51;48.71;93366.31;5029906;28;20421;-74
2021/12/26 02:35:11;;;;;;;11.65;7.65;;;;;;;6.66;48.63;93385.25;5032303;28;20060;-75
2021/12/26 02:37:36;;;;;;;13.65;7.25;;;;;;;6.61;48.55;93384.59;5030867;28;20112;-74
2021/12/26 02:40:04;;;;;;;11.50;7.18;;;;;;;6.45;48.92;93384.16;5031506;28;20082;-76
2021/12/26 02:42:29;;;;;;;11.32;7.30;;;;;;;6.50;48.45;93384.06;5029145;28;20033;-74
2021/12/26 02:44:55;;;;;;;12.82;7.75;;;;;;;6.46;48.63;93380.41;5033370;28;20063;-75
2021/12/26 02:47:44;;;;;;;11.20;7.30;;;;;;;6.48;48.88;93394.13;5016019;28;20140;-75
2021/12/26 02:50:14;;;;;;;15.82;7.40;;;;;;;6.49;48.97;93395.69;5034872;28;20049;-74
2021/12/26 02:52:40;;;;;;;15.18;9.85;;;;;;;6.52;48.95;93395.09;5030741;28;20042;-75
2021/12/26 02:55:07;;;;;;;13.48;7.07;;;;;;;6.57;48.66;93381.75;5032062;28;20039;-74
2021/12/26 02:57:33;;;;;;;13.40;6.75;;;;;;;6.63;48.72;93366.59;5031040;28;20643;-75
2021/12/26 03:00:08;;;;;;;9.20;5.88;;;;;;;6.64;48.99;93382.16;5030955;28;20037;-75
2021/12/26 03:02:33;;;;;;;11.23;6.28;;;;;;;6.76;48.50;93397.47;5030667;28;20037;-75
2021/12/26 03:04:59;;;;;;;12.77;6.53;;;;;;;6.51;49.00;93369.75;5031070;28;20098;-75
2021/12/26 03:07:24;;;;;;;11.02;7.28;;;;;;;6.35;49.46;93384.38;5033844;28;20102;-75
2021/12/26 03:09:58;;;;;;;12.18;7.72;;;;;;;6.46;50.00;93383.06;5032508;28;20109;-75
2021/12/26 03:12:23;;;;;;;13.32;8.18;;;;;;;6.67;49.51;93378.13;5033833;28;20048;-74
2021/12/26 03:14:49;;;;;;;16.33;8.07;;;;;;;6.62;49.02;93360.50;5027725;28;20045;-76
2021/12/26 03:17:14;;;;;;;14.90;8.02;;;;;;;6.64;48.87;93352.31;5030894;28;20041;-75
2021/12/26 03:19:40;;;;;;;14.15;7.60;;;;;;;6.80;48.73;93359.56;5028826;28;21606;-75
2021/12/26 03:22:06;;;;;;;14.65;7.93;;;;;;;6.02;50.24;93336.16;5029250;28;22153;-75
2021/12/26 03:24:32;;;;;;;14.88;7.63;;;;;;;6.53;49.76;93372.88;5031035;28;20040;-75
2021/12/26 03:27:03;;;;;;;12.38;7.18;;;;;;;6.61;49.27;93353.66;5030415;28;20048;-74
2021/12/26 03:29:29;;;;;;;15.50;7.20;;;;;;;6.74;49.12;93370.56;5031256;28;20120;-74
2021/12/26 03:31:54;;;;;;;13.95;6.95;;;;;;;6.28;49.89;93373.41;5031003;28;20047;-74
2021/12/26 03:34:20;;;;;;;14.15;8.32;;;;;;;6.48;49.68;93383.56;5028056;28;20491;-74
2021/12/26 03:36:46;;;;;;;30.63;18.20;;;;;;;6.45;49.71;93363.03;5028023;28;20061;-75
2021/12/26 03:39:11;;;;;;;29.23;14.13;;;;;;;6.47;49.56;93386.47;5029185;28;20033;-75
2021/12/26 03:41:37;;;;;;;33.80;16.10;;;;;;;6.42;49.70;93393.44;5031800;28;20297;-75
2021/12/26 03:44:03;;;;;;;53.42;29.73;;;;;;;6.27;49.98;93387.69;5028501;28;20531;-74
2021/12/26 03:46:28;;;;;;;29.58;14.98;;;;;;;6.26;50.32;93392.19;5027061;28;20055;-74
2021/12/26 03:48:54;;;;;;;16.85;8.90;;;;;;;5.91;51.03;93391.03;5031496;28;20102;-75
2021/12/26 03:51:20;;;;;;;18.05;9.80;;;;;;;5.92;51.04;93374.09;5031165;28;20037;-75
2021/12/26 03:53:46;;;;;;;13.02;7.70;;;;;;;6.23;50.19;93381.44;5029695;28;20025;-75
2021/12/26 03:56:11;;;;;;;13.95;7.10;;;;;;;6.11;50.48;93381.94;5029303;28;20511;-75
2021/12/26 03:58:38;;;;;;;19.65;10.88;;;;;;;6.19;50.79;93412.16;5029718;28;20816;-75
2021/12/26 04:01:04;;;;;;;16.67;10.35;;;;;;;6.02;50.75;93402.94;5030476;28;20410;-74
2021/12/26 04:03:29;;;;;;;16.73;9.23;;;;;;;5.76;51.60;93388.69;5029610;28;20045;-74
2021/12/26 04:05:55;;;;;;;13.20;7.72;;;;;;;6.24;50.80;93412.84;5025507;28;20037;-75
2021/12/26 04:08:20;;;;;;;11.27;7.72;;;;;;;6.17;50.86;93393.19;5031338;28;20453;-75
2021/12/26 04:10:46;;;;;;;12.57;6.57;;;;;;;6.17;50.61;93419.59;5030106;28;20036;-74
2021/12/26 04:13:12;;;;;;;29.80;12.75;;;;;;;6.15;50.98;93411.16;5028347;28;20029;-75
2021/12/26 04:15:38;;;;;;;62.85;20.88;;;;;;;6.27;50.55;93408.81;5028168;28;20090;-75
2021/12/26 04:18:04;;;;;;;29.75;14.68;;;;;;;6.15;50.88;93397.97;5027978;28;20049;-75
2021/12/26 04:20:30;;;;;;;13.85;7.82;;;;;;;6.08;50.48;93389.66;5027942;28;20274;-75
2021/12/26 04:22:57;;;;;;;18.13;9.32;;;;;;;6.03;51.06;93401.09;5016970;28;20072;-74
2021/12/26 04:25:22;;;;;;;21.13;12.70;;;;;;;6.10;50.76;93388.28;5012277;28;20657;-75
2021/12/26 04:27:48;;;;;;;16.02;10.02;;;;;;;6.40;50.43;93413.31;5028470;28;20070;-75
2021/12/26 04:30:15;;;;;;;17.50;10.38;;;;;;;6.29;50.56;93380.28;5028674;28;20048;-74
2021/12/26 04:32:40;;;;;;;15.52;8.32;;;;;;;6.29;50.14;93391.63;5024672;28;20122;-74
2021/12/26 04:35:07;;;;;;;12.60;8.05;;;;;;;6.61;50.16;93411.00;5027605;28;20034;-74
2021/12/26 04:37:34;;;;;;;16.30;9.43;;;;;;;6.73;49.46;93411.28;5017887;28;20037;-75
2021/12/26 04:40:00;;;;;;;11.38;8.45;;;;;;;6.48;49.89;93393.34;5027466;28;20027;-74
2021/12/26 04:42:26;;;;;;;21.88;9.40;;;;;;;6.63;49.66;93406.22;5028480;28;20037;-75
2021/12/26 04:44:53;;;;;;;12.75;8.07;;;;;;;6.70;49.26;93399.44;5029927;28;20622;-74
2021/12/26 04:47:18;;;;;;;13.68;7.80;;;;;;;6.81;49.35;93408.72;5030947;28;20061;-74
2021/12/26 04:49:44;;;;;;;13.45;7.15;;;;;;;6.71;49.24;93387.78;5027098;28;20564;-74
2021/12/26 04:52:09;;;;;;;12.65;6.30;;;;;;;6.52;49.16;93387.16;5031051;28;20082;-74
2021/12/26 04:54:35;;;;;;;10.13;6.68;;;;;;;6.48;49.95;93401.25;5028470;28;20389;-75
2021/12/26 04:57:00;;;;;;;15.27;7.75;;;;;;;6.48;49.99;93403.91;5028822;28;20043;-74
2021/12/26 04:59:26;;;;;;;13.88;7.32;;;;;;;6.21;51.01;93416.09;5028147;28;20477;-74
2021/12/26 05:01:53;;;;;;;9.80;6.03;;;;;;;6.53;50.33;93423.06;5012787;28;20038;-74
2021/12/26 05:04:19;;;;;;;13.18;7.63;;;;;;;5.68;52.16;93423.66;5027855;28;20025;-74
2021/12/26 05:06:46;;;;;;;10.50;5.88;;;;;;;6.07;51.76;93435.63;5028552;28;20437;-74
2021/12/26 05:09:13;;;;;;;12.40;6.38;;;;;;;6.27;51.09;93429.94;5015283;28;20039;-74
2021/12/26 05:11:39;;;;;;;11.15;7.10;;;;;;;6.18;51.21;93421.94;5028773;28;20045;-74
2021/12/26 05:14:06;;;;;;;10.65;6.50;;;;;;;6.40;51.18;93432.59;5026026;28;20049;-74
2021/12/26 05:16:31;;;;;;;11.38;6.82;;;;;;;6.52;50.41;93426.00;5027118;28;20330;-74
2021/12/26 05:18:57;;;;;;;10.02;5.85;;;;;;;6.51;50.63;93425.22;5015438;28;20409;-74
2021/12/26 05:21:23;;;;;;;10.93;6.28;;;;;;;6.57;50.37;93434.59;5031172;28;20044;-75
2021/12/26 05:23:48;;;;;;;9.85;5.78;;;;;;;6.00;51.83;93436.78;5027649;28;20040;-74
2021/12/26 05:26:13;;;;;;;10.68;6.50;;;;;;;5.89;52.45;93445.97;5027069;28;20037;-74
2021/12/26 05:28:39;;;;;;;10.52;6.18;;;;;;;5.63;53.22;93421.09;5024865;28;20075;-74
2021/12/26 05:31:04;;;;;;;10.32;6.32;;;;;;;4.96;56.01;93420.63;5015957;28;20021;-74
2021/12/26 05:33:30;;;;;;;8.60;6.20;;;;;;;5.06;56.30;93430.25;5027345;28;20033;-74
2021/12/26 05:35:55;;;;;;;9.75;6.90;;;;;;;4.88;57.84;93452.13;5027539;28;20040;-74
2021/12/26 05:38:21;;;;;;;10.85;6.93;;;;;;;4.97;58.22;93442.50;5023535;28;20049;-74
2021/12/26 05:40:46;;;;;;;11.63;7.03;;;;;;;4.59;60.30;93436.47;5029177;28;20056;-74
2021/12/26 05:43:12;;;;;;;14.23;9.10;;;;;;;4.57;60.86;93436.75;5017774;28;20027;-74
2021/12/26 05:45:38;;;;;;;11.10;7.50;;;;;;;4.76;61.33;93441.22;5020700;28;20025;-74
2021/12/26 05:48:04;;;;;;;11.43;7.57;;;;;;;4.68;61.81;93417.09;5027669;28;20035;-74
2021/12/26 05:50:29;;;;;;;17.85;11.10;;;;;;;4.78;62.79;93426.72;5031462;28;20061;-74
2021/12/26 05:52:55;;;;;;;23.17;14.50;;;;;;;5.04;61.80;93412.06;5035030;28;20140;-75
2021/12/26 05:55:20;;;;;;;22.80;14.02;;;;;;;5.27;61.56;93422.78;5030257;28;20071;-74
2021/12/26 05:57:46;;;;;;;13.50;7.72;;;;;;;4.74;63.99;93431.00;5032464;28;20071;-74
2021/12/26 06:00:14;;;;;;;12.50;7.30;;;;;;;5.26;62.83;93437.03;5012478;28;20513;-74
2021/12/26 06:02:40;;;;;;;10.77;7.30;;;;;;;4.66;65.14;93397.38;5014924;28;20121;-74
2021/12/26 06:05:05;;;;;;;17.77;10.05;;;;;;;5.08;64.55;93410.44;5019476;28;20045;-75
2021/12/26 06:07:31;;;;;;;11.68;6.93;;;;;;;4.39;65.89;93355.13;5031152;28;20178;-75
2021/12/26 06:09:56;;;;;;;9.65;6.25;;;;;;;4.40;67.44;93388.28;5032810;28;20277;-74
2021/12/26 06:12:21;;;;;;;12.65;7.95;;;;;;;4.24;67.76;93388.47;5028399;28;20061;-75
2021/12/26 06:14:47;;;;;;;11.77;7.18;;;;;;;4.33;68.62;93390.47;5030725;28;20630;-75
2021/12/26 06:17:12;;;;;;;12.18;7.72;;;;;;;4.82;66.93;93395.31;5032953;28;20037;-75
2021/12/26 06:19:38;;;;;;;16.50;8.73;;;;;;;4.90;66.02;93360.38;5029633;28;20067;-73
2021/12/26 06:22:06;;;;;;;15.02;8.88;;;;;;;5.25;63.69;93393.28;5031983;28;20049;-75
2021/12/26 06:24:32;;;;;;;9.52;6.82;;;;;;;4.32;63.87;93291.50;5027228;28;20041;-74
2021/12/26 06:26:58;;;;;;;10.57;6.82;;;;;;;3.90;67.50;93358.91;5032668;28;20053;-74
2021/12/26 06:29:23;;;;;;;21.27;9.80;;;;;;;4.33;66.28;93361.50;5027972;28;20124;-75
2021/12/26 06:31:49;;;;;;;15.05;8.10;;;;;;;3.53;69.14;93371.94;5032068;28;20122;-74
2021/12/26 06:34:14;;;;;;;8.38;5.90;;;;;;;3.91;69.83;93378.88;5029045;28;20032;-74
2021/12/26 06:36:40;;;;;;;11.32;7.35;;;;;;;4.12;67.96;93385.44;5019908;28;20017;-74
2021/12/26 06:39:06;;;;;;;10.93;7.47;;;;;;;3.68;67.36;93340.22;5030183;28;20091;-75
2021/12/26 06:41:33;;;;;;;14.60;8.02;;;;;;;4.25;65.69;93352.38;5030513;28;20037;-74
2021/12/26 06:43:58;;;;;;;15.73;8.02;;;;;;;4.03;65.80;93354.78;5029134;28;20068;-74
2021/12/26 06:46:24;;;;;;;16.45;7.88;;;;;;;3.67;68.80;93391.25;5031318;28;20612;-74
2021/12/26 06:48:49;;;;;;;15.68;8.45;;;;;;;4.13;68.04;93383.59;5026550;28;20013;-74
2021/12/26 06:51:15;;;;;;;11.43;7.55;;;;;;;4.45;66.66;93394.28;5033136;28;20405;-75
2021/12/26 06:53:40;;;;;;;21.10;9.35;;;;;;;4.57;66.29;93428.06;5026743;28;20041;-74
2021/12/26 06:56:06;;;;;;;16.38;10.02;;;;;;;4.78;65.76;93437.25;5016675;28;20037;-74
2021/12/26 06:58:32;;;;;;;19.15;12.32;;;;;;;4.96;65.18;93439.09;5027491;28;20034;-74
2021/12/26 07:00:58;;;;;;;19.88;9.70;;;;;;;5.28;63.86;93451.53;5031916;28;20959;-74
2021/12/26 07:03:23;;;;;;;16.70;9.40;;;;;;;5.53;62.33;93452.94;5012810;28;20037;-75
2021/12/26 07:05:48;;;;;;;15.68;9.38;;;;;;;5.56;62.16;93447.09;5030815;28;20482;-75
2021/12/26 07:08:14;;;;;;;23.08;10.48;;;;;;;5.12;63.28;93450.97;5029606;28;20045;-74
2021/12/26 07:10:39;;;;;;;18.63;11.18;;;;;;;4.45;64.80;93398.75;5030763;28;20041;-74
2021/12/26 07:13:05;;;;;;;16.25;10.10;;;;;;;5.09;63.53;93433.06;5026470;28;21336;-75
2021/12/26 07:15:30;;;;;;;22.17;12.05;;;;;;;5.15;63.29;93431.16;5032305;28;20088;-74
2021/12/26 07:17:56;;;;;;;20.67;11.43;;;;;;;5.19;63.51;93447.19;5015428;28;20041;-75
2021/12/26 07:20:21;;;;;;;19.88;11.60;;;;;;;5.37;63.04;93441.88;5032522;28;20047;-75
2021/12/26 07:22:46;;;;;;;23.80;13.45;;;;;;;5.38;62.84;93429.47;5024775;28;20037;-75
2021/12/26 07:25:14;;;;;;;23.17;12.35;;;;;;;5.72;61.69;93458.16;5031320;28;20028;-73
2021/12/26 07:27:40;;;;;;;17.17;10.05;;;;;;;5.76;61.83;93452.00;5027259;28;20116;-74
2021/12/26 07:30:06;;;;;;;24.05;13.23;;;;;;;5.34;63.21;93449.56;5030665;28;20390;-75
2021/12/26 07:32:33;;;;;;;21.08;13.13;;;;;;;5.28;63.61;93417.25;5025797;28;20033;-75
2021/12/26 07:34:58;;;;;;;13.88;9.95;;;;;;;5.48;63.41;93453.78;5030063;28;20041;-74
2021/12/26 07:37:25;;;;;;;14.02;8.60;;;;;;;5.47;63.51;93438.28;5029377;28;20085;-74
2021/12/26 07:39:51;;;;;;;18.27;8.52;;;;;;;5.62;63.42;93445.16;5031871;28;20021;-75
2021/12/26 07:42:16;;;;;;;29.70;13.73;;;;;;;5.59;63.61;93425.41;5030125;28;20226;-75
2021/12/26 07:44:42;;;;;;;15.82;7.97;;;;;;;5.59;62.54;93420.13;5026551;28;20041;-75
2021/12/26 07:47:07;;;;;;;7.38;4.60;;;;;;;5.49;64.60;93451.94;5028644;28;20029;-75
2021/12/26 07:49:33;;;;;;;8.30;4.55;;;;;;;5.57;64.10;93438.09;5013725;28;20048;-75
2021/12/26 07:51:59;;;;;;;11.05;5.38;;;;;;;5.37;67.07;93462.97;5032175;28;20481;-75
2021/12/26 07:54:25;;;;;;;9.50;6.05;;;;;;;4.96;67.25;93404.81;5032343;28;20034;-74
2021/12/26 07:56:53;;;;;;;10.65;6.85;;;;;;;4.87;68.41;93388.09;5030985;28;20029;-75
2021/12/26 07:59:19;;;;;;;11.55;5.63;;;;;;;5.43;66.29;93414.31;5028720;28;20105;-75
2021/12/26 08:01:46;;;;;;;7.43;5.38;;;;;;;5.05;67.43;93403.09;5032034;28;20040;-75
2021/12/26 08:04:13;;;;;;;13.57;6.78;;;;;;;5.50;67.48;93430.56;5029900;28;20132;-74
2021/12/26 08:06:39;;;;;;;13.85;6.15;;;;;;;5.41;67.95;93444.72;5029205;28;20509;-75
2021/12/26 08:09:06;;;;;;;10.77;5.70;;;;;;;5.27;68.18;93422.78;5030774;28;20041;-75
2021/12/26 08:11:32;;;;;;;10.88;5.32;;;;;;;4.97;69.98;93424.84;5028310;28;20544;-75
2021/12/26 08:13:57;;;;;;;10.35;6.20;;;;;;;5.44;69.36;93418.53;5026367;28;20048;-76
2021/12/26 08:16:23;;;;;;;14.93;7.72;;;;;;;5.84;68.10;93411.75;5029646;28;20496;-76
2021/12/26 08:18:48;;;;;;;12.65;7.18;;;;;;;5.74;67.83;93369.72;5030499;28;20036;-75
2021/12/26 08:21:14;;;;;;;11.05;6.65;;;;;;;6.35;65.46;93401.00;5014091;28;20044;-75
2021/12/26 08:23:39;;;;;;;11.57;6.43;;;;;;;6.26;65.57;93396.72;5031026;28;20033;-75
2021/12/26 08:26:04;;;;;;;12.35;6.93;;;;;;;6.61;64.63;93393.28;5031323;28;20055;-75
2021/12/26 08:28:30;;;;;;;12.38;7.10;;;;;;;6.48;64.02;93394.13;5027998;28;20028;-76
2021/12/26 08:30:56;;;;;;;9.70;5.97;;;;;;;6.50;64.43;93402.53;5029009;28;20048;-75
2021/12/26 08:33:21;;;;;;;15.98;5.95;;;;;;;6.06;64.47;93373.34;5031145;28;20071;-75
2021/12/26 08:35:48;;;;;;;14.43;6.65;;;;;;;6.02;65.57;93434.63;5030511;28;20584;-74
2021/12/26 08:38:20;;;;;;;10.30;4.85;;;;;;;6.07;65.65;93432.97;5029329;28;20318;-75
2021/12/26 08:40:46;;;;;;;11.55;5.03;;;;;;;5.40;69.75;93419.41;5028271;28;20033;-75
2021/12/26 08:43:11;;;;;;;12.43;6.45;;;;;;;5.91;67.39;93435.91;5026714;28;20032;-75
2021/12/26 08:45:37;;;;;;;18.20;7.90;;;;;;;5.90;67.28;93421.13;5031976;28;20109;-75
2021/12/26 08:48:03;;;;;;;13.73;7.53;;;;;;;5.87;67.51;93416.44;5029620;28;20148;-75
2021/12/26 08:50:30;;;;;;;15.55;7.25;;;;;;;5.84;66.22;93417.03;5029058;28;20037;-75
2021/12/26 08:52:56;;;;;;;13.13;5.40;;;;;;;6.11;64.85;93415.47;5029350;28;20141;-76
2021/12/26 08:55:23;;;;;;;8.68;5.50;;;;;;;6.21;67.04;93428.50;5026538;28;20044;-76
2021/12/26 08:57:50;;;;;;;10.30;4.15;;;;;;;6.36;66.24;93415.75;5013514;28;20074;-75
2021/12/26 09:00:16;;;;;;;6.03;4.28;;;;;;;6.36;64.49;93394.63;5028499;28;20037;-75
2021/12/26 09:02:41;;;;;;;7.75;3.60;;;;;;;6.91;62.72;93418.25;5030147;28;20045;-75
2021/12/26 09:05:08;;;;;;;16.40;6.82;;;;;;;6.97;62.09;93403.06;5027070;28;20120;-75
2021/12/26 09:07:33;;;;;;;10.68;5.88;;;;;;;6.75;62.28;93378.19;5031611;28;20498;-75
2021/12/26 09:10:00;;;;;;;7.93;4.68;;;;;;;7.03;63.26;93404.53;5028218;28;20549;-75
2021/12/26 09:12:26;;;;;;;8.35;4.07;;;;;;;7.42;61.80;93394.03;5031061;28;20037;-75
2021/12/26 09:14:52;;;;;;;7.50;4.20;;;;;;;7.46;62.21;93386.28;5021463;28;20064;-75
2021/12/26 09:17:17;;;;;;;9.10;4.53;;;;;;;7.71;61.14;93399.66;5028652;28;20037;-75
2021/12/26 09:19:43;;;;;;;6.55;3.70;;;;;;;7.60;59.57;93371.88;5028801;28;20404;-76
2021/12/26 09:22:11;;;;;;;5.38;3.85;;;;;;;7.82;59.45;93383.53;5030217;28;20059;-76
2021/12/26 09:24:38;;;;;;;6.13;4.07;;;;;;;7.86;58.80;93365.94;5026131;28;20500;-75
2021/12/26 09:27:04;;;;;;;6.40;4.07;;;;;;;8.23;57.91;93388.47;5012505;28;20044;-75
2021/12/26 09:29:31;;;;;;;7.30;3.63;;;;;;;8.12;56.53;93387.97;5029196;28;20321;-75
2021/12/26 09:31:57;;;;;;;6.97;3.42;;;;;;;7.23;59.24;93373.09;5029135;28;20045;-75
2021/12/26 09:34:24;;;;;;;6.07;4.10;;;;;;;7.92;59.32;93389.34;5027640;28;20033;-75
2021/12/26 09:36:50;;;;;;;6.57;3.40;;;;;;;7.61;58.27;93397.25;5033379;28;20017;-76
2021/12/26 09:39:16;;;;;;;5.47;4.03;;;;;;;8.04;58.92;93415.22;5024595;28;20048;-77
2021/12/26 09:41:42;;;;;;;4.55;3.60;;;;;;;7.59;59.37;93399.41;5029602;28;20509;-75
2021/12/26 09:44:08;;;;;;;8.43;4.63;;;;;;;7.44;59.64;93410.38;5028062;28;20044;-75
2021/12/26 09:46:34;;;;;;;6.32;3.88;;;;;;;7.95;59.63;93412.53;5030304;28;20124;-75
2021/12/26 09:49:00;;;;;;;7.57;4.95;;;;;;;7.15;58.00;93380.94;5026981;28;20047;-75
2021/12/26 09:51:26;;;;;;;7.35;3.92;;;;;;;6.67;58.31;93394.75;5027998;28;20448;-75
2021/12/26 09:53:52;;;;;;;10.02;4.32;;;;;;;7.30;58.76;93399.09;5027461;28;20029;-75
2021/12/26 09:56:18;;;;;;;7.40;4.40;;;;;;;7.00;59.75;93415.69;5027146;28;20534;-75
2021/12/26 09:58:55;;;;;;;7.70;4.85;;;;;;;7.17;60.16;93399.97;5027299;28;20044;-75
2021/12/26 10:01:52;;;;;;;5.57;3.90;;;;;;;7.30;59.93;93423.69;5031279;28;20030;-76
2021/12/26 10:04:19;;;;;;;7.50;3.97;;;;;;;6.81;59.97;93407.91;5015189;28;20078;-76
2021/12/26 10:06:46;;;;;;;10.60;4.10;;;;;;;6.74;60.04;93424.22;5016772;28;20106;-76
2021/12/26 10:09:12;;;;;;;12.27;4.15;;;;;;;6.51;59.78;93393.50;5027859;28;20029;-76
2021/12/26 10:11:51;;;;;;;6.43;3.33;;;;;;;7.16;60.21;93425.63;5029184;28;20032;-75
2021/12/26 10:14:22;;;;;;;6.70;4.15;;;;;;;7.59;58.99;93417.16;5029663;28;20037;-76
2021/12/26 10:16:53;;;;;;;4.90;3.22;;;;;;;7.77;58.30;93418.06;5024868;28;20037;-76
2021/12/26 10:19:19;;;;;;;6.60;3.85;;;;;;;7.95;58.03;93393.22;5028219;28;20403;-76
2021/12/26 10:21:49;;;;;;;8.00;4.40;;;;;;;7.56;56.71;93355.06;5027098;28;20029;-76
2021/12/26 10:24:14;;;;;;;8.40;4.50;;;;;;;7.84;57.97;93423.69;5027352;28;20045;-76
2021/12/26 10:26:44;;;;;;;10.35;4.55;;;;;;;8.12;57.02;93414.47;5026421;28;20033;-75
2021/12/26 10:29:23;;;;;;;21.75;8.05;;;;;;;7.72;57.98;93421.59;5028832;28;20041;-75
2021/12/26 10:31:59;;;;;;;26.10;12.00;;;;;;;7.86;57.22;93421.53;5030738;28;20612;-76
2021/12/26 10:34:43;;;;;;;16.95;9.15;;;;;;;7.43;56.88;93408.06;5030240;28;20032;-76
2021/12/26 10:37:28;;;;;;;17.85;8.50;;;;;;;7.84;57.76;93427.13;5033258;28;20458;-76
2021/12/26 10:39:55;;;;;;;;;;;;;;;7.71;57.67;93420.81;5032423;28;20041;-77
2021/12/26 10:42:24;;;;;;;14.95;6.18;;;;;;;7.49;57.96;93401.53;5031805;28;19925;-76
2021/12/26 10:44:58;;;;;;;14.43;6.88;;;;;;;7.19;57.71;93427.66;5032353;28;20042;-75
2021/12/26 10:47:26;;;;;;;8.27;4.93;;;;;;;7.44;58.01;93405.09;5027920;28;20127;-76
2021/12/26 10:49:54;;;;;;;8.45;5.10;;;;;;;7.33;57.62;93398.50;5030515;28;20646;-75
2021/12/26 10:52:22;;;;;;;21.60;8.45;;;;;;;7.13;58.63;93415.66;5030832;28;20499;-75
2021/12/26 10:54:49;;;;;;;8.52;5.55;;;;;;;7.67;57.67;93403.22;5030019;28;20021;-77
2021/12/26 10:57:24;;;;;;;25.60;12.18;;;;;;;7.27;57.63;93405.00;5032271;28;20554;-76
2021/12/26 11:00:05;;;;;;;98.55;31.45;;;;;;;6.96;58.21;93407.56;5033836;28;20155;-75
2021/12/26 11:02:31;;;;;;;20.98;9.30;;;;;;;6.90;58.49;93413.31;5033387;28;20477;-77
2021/12/26 11:05:07;;;;;;;8.60;5.57;;;;;;;7.37;57.69;93410.03;5031024;28;20041;-75
2021/12/26 11:07:40;;;;;;;;;;;;;;;7.61;57.18;93399.91;5032368;28;20106;-76
2021/12/26 11:10:11;;;;;;;7.70;4.00;;;;;;;7.79;56.09;93426.47;5034366;28;19921;-76
2021/12/26 11:12:40;;;;;;;11.48;5.60;;;;;;;8.44;54.59;93426.56;5030145;28;20501;-76
2021/12/26 11:15:08;;;;;;;13.13;8.50;;;;;;;8.52;53.97;93429.22;5025926;28;20465;-76
2021/12/26 11:17:42;;;;;;;14.00;7.15;;;;;;;8.01;54.25;93426.44;5030751;28;20799;-75
2021/12/26 11:20:08;;;;;;;12.90;5.70;;;;;;;8.24;54.27;93419.97;5032902;28;20489;-76
2021/12/26 11:22:33;;;;;;;11.32;4.90;;;;;;;8.77;53.29;93440.19;5028808;28;20025;-76
2021/12/26 11:24:59;;;;;;;5.25;4.03;;;;;;;8.90;52.85;93418.06;5032720;28;20401;-76
2021/12/26 11:27:26;;;;;;;5.65;4.47;;;;;;;8.82;53.00;93405.56;5028300;28;20044;-76
2021/12/26 11:29:53;;;;;;;14.45;7.45;;;;;;;8.61;52.31;93404.63;5029672;28;20037;-76
2021/12/26 11:32:20;;;;;;;7.20;5.13;;;;;;;9.22;52.36;93419.47;5031504;28;20045;-76